Time;durP1;ratioP1;P1;durP2;ratioP2;P2;SDS_P1;SDS_P2;PMS_P1;PMS_P2;Temp;Humidity;BMP_temperature;BMP_pressure;BME280_temperature;BME280_humidity;BME280_pressure;Samples;Min_cycle;Max_cycle;Signal;HPM_P1;HPM_P2
2023/02/02 00:00:12;;;;;;;33.28;3.88;;;;;;;6.78;100.00;102249.56;5116630;28;20039;-76
2023/02/02 00:02:37;;;;;;;27.35;4.18;;;;;;;6.78;100.00;102253.03;5116471;28;20119;-76
2023/02/02 00:05:02;;;;;;;26.98;4.18;;;;;;;6.78;100.00;102260.13;5116673;28;20475;-75
2023/02/02 00:07:28;;;;;;;32.15;3.58;;;;;;;6.77;100.00;102261.91;5116392;28;20043;-76
2023/02/02 00:09:53;;;;;;;20.00;3.30;;;;;;;6.79;100.00;102265.34;5114922;28;20122;-76
2023/02/02 00:12:18;;;;;;;30.65;3.83;;;;;;;6.78;100.00;102253.03;5116130;28;20067;-76
2023/02/02 00:14:44;;;;;;;25.20;3.70;;;;;;;6.79;100.00;102259.19;5114391;28;20413;-77
2023/02/02 00:17:10;;;;;;;26.10;4.28;;;;;;;6.77;100.00;102267.19;5116047;28;20028;-76
2023/02/02 00:19:35;;;;;;;23.63;4.70;;;;;;;6.78;100.00;102253.03;5116227;28;20172;-76
2023/02/02 00:22:01;;;;;;;29.70;4.50;;;;;;;6.78;100.00;102268.91;5115839;28;20078;-75
2023/02/02 00:24:27;;;;;;;22.45;3.38;;;;;;;6.78;100.00;102260.97;5115390;28;20042;-75
2023/02/02 00:26:55;;;;;;;27.00;4.13;;;;;;;6.77;100.00;102269.84;5115512;28;20118;-76
2023/02/02 00:29:23;;;;;;;28.42;3.53;;;;;;;6.79;100.00;102278.56;5115694;28;20066;-75
2023/02/02 00:31:48;;;;;;;28.08;4.43;;;;;;;6.84;100.00;102257.16;5115827;28;20081;-75
2023/02/02 00:34:14;;;;;;;22.63;3.95;;;;;;;6.87;100.00;102275.53;5115883;28;20059;-76
2023/02/02 00:36:41;;;;;;;19.23;3.13;;;;;;;6.87;100.00;102280.81;5115634;28;20123;-75
2023/02/02 00:39:08;;;;;;;23.20;4.00;;;;;;;6.89;100.00;102269.19;5114461;28;20031;-75
2023/02/02 00:41:33;;;;;;;25.15;4.93;;;;;;;6.87;100.00;102259.66;5115755;28;20068;-75
2023/02/02 00:46:43;;;;;;;19.33;3.30;;;;;;;6.89;100.00;102287.72;5115773;28;20042;-76
2023/02/02 00:49:09;;;;;;;21.38;3.55;;;;;;;6.86;100.00;102276.44;5115056;28;20047;-76
2023/02/02 00:51:35;;;;;;;22.23;4.05;;;;;;;6.85;100.00;102280.03;5115592;28;20490;-76
2023/02/02 00:54:01;;;;;;;26.05;3.78;;;;;;;6.85;100.00;102269.44;5115743;28;20042;-77
2023/02/02 00:56:27;;;;;;;25.27;4.45;;;;;;;6.83;100.00;102263.38;5114093;28;20127;-77
2023/02/02 00:58:52;;;;;;;25.90;4.35;;;;;;;6.85;100.00;102277.38;5115595;28;20046;-77
2023/02/02 01:01:20;;;;;;;20.60;3.83;;;;;;;6.83;100.00;102279.25;5115121;28;20034;-76
2023/02/02 01:03:46;;;;;;;27.55;3.70;;;;;;;6.82;100.00;102272.25;5115137;28;20063;-74
2023/02/02 01:06:11;;;;;;;33.38;4.00;;;;;;;6.80;100.00;102277.63;5115084;28;20067;-76
2023/02/02 01:08:37;;;;;;;26.60;4.15;;;;;;;6.78;100.00;102279.50;5115237;28;20031;-76
2023/02/02 01:11:03;;;;;;;24.08;5.63;;;;;;;6.76;100.00;102281.34;5114849;28;20038;-76
2023/02/02 01:13:28;;;;;;;23.50;3.78;;;;;;;6.78;100.00;102265.44;5114987;28;20028;-76
2023/02/02 01:15:58;;;;;;;26.25;3.40;;;;;;;6.77;100.00;102279.59;5114841;28;20452;-76
2023/02/02 01:18:24;;;;;;;24.15;3.78;;;;;;;6.76;100.00;102265.47;5115443;28;20055;-75
2023/02/02 01:21:01;;;;;;;20.27;3.20;;;;;;;6.77;100.00;102272.47;5114404;28;20067;-75
2023/02/02 01:23:27;;;;;;;21.27;3.50;;;;;;;6.75;100.00;102266.44;5114645;28;20080;-76
2023/02/02 01:26:01;;;;;;;29.42;4.35;;;;;;;6.73;100.00;102275.38;5114610;28;20024;-75
2023/02/02 01:28:27;;;;;;;23.95;3.97;;;;;;;6.73;100.00;102273.56;5115152;28;20030;-76
2023/02/02 01:30:52;;;;;;;24.92;3.70;;;;;;;6.75;100.00;102273.50;5114573;28;20055;-76
2023/02/02 01:33:19;;;;;;;32.60;4.72;;;;;;;6.78;100.00;102271.56;5114506;28;20034;-75
2023/02/02 01:35:54;;;;;;;23.73;3.70;;;;;;;6.76;100.00;102268.13;5112838;28;20063;-75
2023/02/02 01:38:21;;;;;;;25.67;4.78;;;;;;;6.77;100.00;102263.69;5114392;28;20032;-76
2023/02/02 01:40:51;;;;;;;20.40;3.72;;;;;;;6.74;100.00;102274.44;5114104;28;20035;-75
2023/02/02 01:43:29;;;;;;;21.50;4.30;;;;;;;6.70;100.00;102279.91;5114360;28;20039;-78
2023/02/02 01:45:56;;;;;;;26.90;4.70;;;;;;;6.71;100.00;102283.38;5113957;28;20306;-76
2023/02/02 01:48:27;;;;;;;26.02;4.35;;;;;;;6.70;100.00;102274.59;5112842;28;20469;-76
2023/02/02 01:50:59;;;;;;;18.58;3.10;;;;;;;6.69;100.00;102272.88;5114293;28;20134;-77
2023/02/02 01:53:25;;;;;;;23.70;4.70;;;;;;;6.71;100.00;102276.28;5112927;28;20563;-76
2023/02/02 01:55:51;;;;;;;22.20;3.60;;;;;;;6.68;100.00;102273.81;5114123;28;20031;-76
2023/02/02 01:58:25;;;;;;;26.08;4.20;;;;;;;6.70;100.00;102279.03;5114269;28;20457;-75
2023/02/02 02:00:52;;;;;;;20.05;4.00;;;;;;;6.68;100.00;102272.97;5114363;28;20023;-76
2023/02/02 02:03:22;;;;;;;23.08;4.65;;;;;;;6.70;100.00;102292.25;5113931;28;20500;-75
2023/02/02 02:05:58;;;;;;;24.75;4.80;;;;;;;6.71;100.00;102283.38;5114312;28;20081;-76
2023/02/02 02:08:30;;;;;;;18.80;3.88;;;;;;;6.73;100.00;102285.94;5113863;28;20081;-75
2023/02/02 02:10:56;;;;;;;21.80;3.80;;;;;;;6.73;100.00;102276.22;5114113;28;20207;-76
2023/02/02 02:16:17;;;;;;;21.42;3.33;;;;;;;6.73;100.00;102286.78;5112964;28;20127;-75
2023/02/02 02:16:24;;;;;;;23.02;4.35;;;;;;;6.73;100.00;102284.16;5113421;28;20044;-76
2023/02/02 02:18:59;;;;;;;24.30;4.20;;;;;;;6.74;100.00;102277.94;5113773;28;20031;-76
2023/02/02 02:28:10;;;;;;;23.92;4.10;;;;;;;6.79;100.00;102272.41;5071834;28;20520;-75
2023/02/02 02:31:29;;;;;;;24.88;3.67;;;;;;;6.76;100.00;102267.28;5114199;28;20027;-76
2023/02/02 02:34:02;;;;;;;24.73;3.83;;;;;;;6.78;100.00;102270.72;5034112;28;20029;-76
2023/02/02 02:36:47;;;;;;;22.88;4.25;;;;;;;6.78;100.00;102260.13;5050916;28;20139;-76
2023/02/02 02:39:18;;;;;;;22.88;4.20;;;;;;;6.75;100.00;102266.44;5091048;28;20040;-76
2023/02/02 02:41:52;;;;;;;31.02;3.97;;;;;;;6.78;100.00;102260.13;5113426;28;20028;-76
2023/02/02 02:44:20;;;;;;;29.70;4.60;;;;;;;6.79;100.00;102269.75;5113394;28;20456;-76
2023/02/02 02:46:47;;;;;;;17.58;3.20;;;;;;;6.78;100.00;102262.78;5113447;28;20035;-76
2023/02/02 02:49:12;;;;;;;20.80;3.80;;;;;;;6.78;100.00;102270.72;5113673;28;20106;-76
2023/02/02 02:51:47;;;;;;;21.10;3.97;;;;;;;6.79;100.00;102252.13;5113630;28;20519;-76
2023/02/02 02:54:17;;;;;;;19.23;3.47;;;;;;;6.80;100.00;102242.38;5113987;28;20027;-77
2023/02/02 02:57:00;;;;;;;22.80;4.15;;;;;;;6.77;100.00;102253.13;5114127;28;20024;-77
2023/02/02 02:59:56;;;;;;;22.27;3.28;;;;;;;6.78;100.00;102253.03;5113429;28;20032;-76
2023/02/02 03:02:44;;;;;;;21.73;3.22;;;;;;;6.76;100.00;102243.47;5113302;28;20483;-75
2023/02/02 03:05:22;;;;;;;21.88;3.35;;;;;;;6.76;100.00;102256.69;5104693;28;20043;-75
2023/02/02 03:08:00;;;;;;;14.18;3.13;;;;;;;6.74;100.00;102250.63;5113585;28;20039;-76
2023/02/02 03:10:29;;;;;;;21.27;4.40;;;;;;;6.73;100.00;102251.56;5113115;28;20059;-75
2023/02/02 03:12:55;;;;;;;20.23;3.95;;;;;;;6.73;100.00;102264.78;5113298;28;20077;-76
2023/02/02 03:15:21;;;;;;;25.42;3.83;;;;;;;6.76;100.00;102276.06;5113236;28;20074;-75
2023/02/02 03:17:48;;;;;;;19.60;3.35;;;;;;;6.76;100.00;102261.97;5113113;28;20067;-77
2023/02/02 03:20:14;;;;;;;19.42;3.92;;;;;;;6.74;100.00;102255.94;5112774;28;20118;-76
2023/02/02 03:22:40;;;;;;;24.35;3.33;;;;;;;6.75;100.00;102276.13;5112976;28;20118;-77
2023/02/02 03:25:06;;;;;;;14.80;3.47;;;;;;;6.76;100.00;102267.28;5112780;28;20023;-77
2023/02/02 03:27:32;;;;;;;28.67;3.75;;;;;;;6.74;100.00;102275.28;5112857;28;20032;-75
2023/02/02 03:29:58;;;;;;;26.30;4.13;;;;;;;6.74;100.00;102279.75;5112956;28;20409;-75
2023/02/02 03:32:24;;;;;;;24.52;3.95;;;;;;;6.75;100.00;102277.00;5114374;28;20084;-76
2023/02/02 03:34:49;;;;;;;19.40;3.38;;;;;;;6.74;100.00;102272.66;5116969;28;20376;-76
2023/02/02 03:37:15;;;;;;;24.30;4.20;;;;;;;6.72;100.00;102279.81;5116775;28;20446;-77
2023/02/02 03:39:40;;;;;;;15.52;3.00;;;;;;;6.76;100.00;102275.22;5116749;28;20027;-76
2023/02/02 03:42:05;;;;;;;15.73;3.33;;;;;;;6.78;100.00;102319.19;5115433;28;20077;-76
2023/02/02 03:44:31;;;;;;;35.42;4.53;;;;;;;6.80;100.00;102284.72;5116571;28;20126;-75
2023/02/02 03:46:56;;;;;;;20.85;3.78;;;;;;;6.79;100.00;102296.22;5116612;28;20460;-76
2023/02/02 03:49:21;;;;;;;25.17;3.80;;;;;;;6.81;100.00;102278.50;5116417;28;20122;-76
2023/02/02 03:51:47;;;;;;;23.15;3.22;;;;;;;6.78;100.00;102283.94;5117057;28;20051;-77
2023/02/02 03:54:14;;;;;;;17.75;2.72;;;;;;;6.77;100.00;102306.88;5115202;28;20038;-76
2023/02/02 03:56:39;;;;;;;32.00;4.95;;;;;;;6.79;100.00;102286.50;5116346;28;20051;-77
2023/02/02 03:59:04;;;;;;;24.23;4.53;;;;;;;6.77;100.00;102291.00;5116421;28;20352;-76
2023/02/02 04:01:30;;;;;;;17.77;3.58;;;;;;;6.80;100.00;102271.47;5116635;28;20352;-77
2023/02/02 04:03:56;;;;;;;19.27;3.25;;;;;;;6.82;100.00;102278.41;5116048;28;20027;-77
2023/02/02 04:06:23;;;;;;;23.48;3.47;;;;;;;6.82;100.00;102277.53;5116260;28;20079;-78
2023/02/02 04:08:48;;;;;;;31.10;3.72;;;;;;;6.80;100.00;102285.56;5116585;28;20051;-77
2023/02/02 04:11:15;;;;;;;26.77;3.63;;;;;;;6.82;100.00;102293.41;5116163;28;20106;-76
2023/02/02 04:13:42;;;;;;;18.00;3.53;;;;;;;6.81;100.00;102284.63;5116119;28;20031;-77
2023/02/02 04:16:08;;;;;;;25.65;5.03;;;;;;;6.81;100.00;102278.50;5116672;28;20027;-77
2023/02/02 04:18:36;;;;;;;22.45;3.25;;;;;;;6.78;100.00;102283.94;5116664;28;20080;-77
2023/02/02 04:21:02;;;;;;;18.33;3.85;;;;;;;6.79;100.00;102309.44;5116568;28;20115;-74
2023/02/02 04:23:28;;;;;;;23.10;3.63;;;;;;;6.78;100.00;102298.00;5115859;28;20118;-76
2023/02/02 04:25:54;;;;;;;26.95;3.45;;;;;;;6.79;100.00;102280.34;5115355;28;20476;-75
2023/02/02 04:28:21;;;;;;;15.50;3.05;;;;;;;6.79;100.00;102304.16;5115885;28;20040;-76
2023/02/02 04:30:46;;;;;;;20.65;3.50;;;;;;;6.78;100.00;102276.84;5116174;28;20110;-76
2023/02/02 04:33:12;;;;;;;27.85;4.20;;;;;;;6.76;100.00;102288.44;5116023;28;20459;-76
2023/02/02 04:35:37;;;;;;;27.45;3.47;;;;;;;6.76;100.00;102297.22;5115874;28;20039;-77
2023/02/02 04:38:02;;;;;;;13.00;2.58;;;;;;;6.80;100.00;102303.22;5114477;28;20027;-77
2023/02/02 04:40:28;;;;;;;21.52;3.28;;;;;;;6.81;100.00;102303.16;5115592;28;20032;-77
2023/02/02 04:42:53;;;;;;;19.25;3.30;;;;;;;6.78;100.00;102305.94;5115028;28;20460;-77
2023/02/02 04:45:18;;;;;;;16.52;2.70;;;;;;;6.77;100.00;102298.94;5114251;28;20046;-75
2023/02/02 04:47:44;;;;;;;14.18;2.97;;;;;;;6.81;100.00;102299.66;5115352;28;20031;-77
2023/02/02 04:50:11;;;;;;;16.90;2.78;;;;;;;6.82;100.00;102301.34;5115887;28;20079;-75
2023/02/02 04:52:36;;;;;;;15.05;2.63;;;;;;;6.83;100.00;102293.34;5114781;28;20100;-76
2023/02/02 04:55:02;;;;;;;19.60;3.17;;;;;;;6.84;100.00;102292.41;5115216;28;20035;-76
2023/02/02 04:57:27;;;;;;;22.20;3.17;;;;;;;6.80;100.00;102295.28;5115242;28;20476;-76
2023/02/02 04:59:52;;;;;;;19.77;2.83;;;;;;;6.78;100.00;102302.47;5113864;28;20042;-76
2023/02/02 05:02:18;;;;;;;19.75;3.10;;;;;;;6.79;100.00;102301.50;5115239;28;20039;-77
2023/02/02 05:04:44;;;;;;;20.42;3.13;;;;;;;6.79;100.00;102305.03;5115270;28;20406;-75
2023/02/02 05:07:10;;;;;;;21.23;3.92;;;;;;;6.77;100.00;102304.22;5113744;28;20035;-76
2023/02/02 05:09:35;;;;;;;21.80;4.10;;;;;;;6.77;100.00;102295.44;5113651;28;20040;-74
2023/02/02 05:12:00;;;;;;;22.88;3.88;;;;;;;6.76;100.00;102304.31;5114090;28;20035;-76
2023/02/02 05:14:26;;;;;;;16.33;2.75;;;;;;;6.76;100.00;102310.44;5115156;28;20106;-77
2023/02/02 05:16:52;;;;;;;21.00;3.58;;;;;;;6.76;100.00;102302.50;5114812;28;20062;-77
2023/02/02 05:19:17;;;;;;;28.63;3.45;;;;;;;6.75;100.00;102310.53;5114999;28;20168;-76
2023/02/02 05:21:44;;;;;;;23.05;3.50;;;;;;;6.73;100.00;102301.81;5114770;28;20114;-77
2023/02/02 05:24:10;;;;;;;17.52;3.05;;;;;;;6.70;100.00;102305.47;5114665;28;20076;-76
2023/02/02 05:26:35;;;;;;;14.57;3.25;;;;;;;6.73;100.00;102315.06;5114580;28;20031;-74
2023/02/02 05:29:01;;;;;;;20.42;3.10;;;;;;;6.75;100.00;102307.88;5115208;28;20031;-75
2023/02/02 05:31:28;;;;;;;23.42;3.67;;;;;;;6.73;100.00;102309.75;5114634;28;20047;-76
2023/02/02 05:33:54;;;;;;;15.60;3.50;;;;;;;6.73;100.00;102310.59;5114453;28;20537;-75
2023/02/02 05:36:19;;;;;;;19.60;3.70;;;;;;;6.71;100.00;102318.63;5114536;28;20036;-76
2023/02/02 05:38:45;;;;;;;22.25;3.22;;;;;;;6.70;100.00;102316.06;5113274;28;20396;-76
2023/02/02 05:41:10;;;;;;;21.15;3.00;;;;;;;6.66;100.00;102319.81;5114314;28;20024;-76
2023/02/02 05:43:35;;;;;;;19.02;3.45;;;;;;;6.65;100.00;102313.66;5112888;28;20036;-76
2023/02/02 05:46:01;;;;;;;20.55;3.95;;;;;;;6.66;100.00;102323.31;5114232;28;20357;-75
2023/02/02 05:48:26;;;;;;;21.70;3.53;;;;;;;6.65;100.00;102307.50;5114297;28;20127;-75
2023/02/02 05:51:01;;;;;;;21.25;3.83;;;;;;;6.67;100.00;102310.91;5114561;28;20050;-75
2023/02/02 05:53:28;;;;;;;25.27;3.30;;;;;;;6.68;100.00;102315.28;5114912;28;20028;-75
2023/02/02 05:55:54;;;;;;;25.40;3.92;;;;;;;6.67;100.00;102308.28;5113384;28;20479;-75
2023/02/02 05:58:19;;;;;;;27.00;3.78;;;;;;;6.63;100.00;102309.38;5114178;28;20036;-75
2023/02/02 06:00:45;;;;;;;19.50;3.60;;;;;;;6.65;100.00;102312.81;5114021;28;20035;-75
2023/02/02 06:03:11;;;;;;;20.00;3.60;;;;;;;6.65;100.00;102323.38;5114104;28;20028;-76
2023/02/02 06:05:37;;;;;;;24.08;3.20;;;;;;;6.65;100.00;102316.28;5114752;28;20035;-77
2023/02/02 06:08:03;;;;;;;21.27;3.97;;;;;;;6.67;100.00;102324.16;5113067;28;20049;-78
2023/02/02 06:10:30;;;;;;;20.10;2.83;;;;;;;6.68;100.00;102323.22;5114046;28;20111;-78
2023/02/02 06:12:55;;;;;;;20.00;3.45;;;;;;;6.65;100.00;102324.22;5114299;28;20036;-77
2023/02/02 06:15:21;;;;;;;17.85;3.05;;;;;;;6.64;100.00;102330.47;5113941;28;20028;-76
2023/02/02 06:17:46;;;;;;;30.17;3.88;;;;;;;6.68;100.00;102332.00;5113759;28;20428;-77
2023/02/02 06:20:12;;;;;;;17.10;3.00;;;;;;;6.66;100.00;102341.81;5114559;28;20412;-76
2023/02/02 06:22:37;;;;;;;23.13;3.20;;;;;;;6.68;100.00;102344.38;5113730;28;20038;-77
2023/02/02 06:25:04;;;;;;;25.60;4.68;;;;;;;6.66;100.00;102354.19;5114135;28;20049;-76
2023/02/02 06:27:30;;;;;;;21.75;3.35;;;;;;;6.66;100.00;102360.34;5114210;28;20130;-76
2023/02/02 06:29:56;;;;;;;20.90;3.10;;;;;;;6.67;100.00;102361.19;5113334;28;20529;-77
2023/02/02 06:32:21;;;;;;;18.40;3.33;;;;;;;6.61;100.00;102377.34;5112559;28;20532;-76
2023/02/02 06:34:46;;;;;;;18.02;3.42;;;;;;;6.59;100.00;102385.38;5112213;28;20073;-75
2023/02/02 06:37:12;;;;;;;21.65;3.10;;;;;;;6.58;100.00;102383.66;5113867;28;20038;-75
2023/02/02 06:39:37;;;;;;;20.15;2.63;;;;;;;6.59;100.00;102366.00;5113643;28;20028;-78
2023/02/02 06:42:03;;;;;;;19.58;3.25;;;;;;;6.58;100.00;102373.06;5113468;28;20027;-75
2023/02/02 06:44:28;;;;;;;22.48;3.80;;;;;;;6.62;100.00;102363.22;5113252;28;20039;-76
2023/02/02 06:46:54;;;;;;;20.05;3.30;;;;;;;6.63;100.00;102360.50;5113396;28;20031;-79
2023/02/02 06:49:19;;;;;;;22.33;3.25;;;;;;;6.63;100.00;102352.56;5113266;28;20039;-77
2023/02/02 06:51:47;;;;;;;22.17;3.70;;;;;;;6.64;100.00;102358.69;5113450;28;20067;-78
2023/02/02 06:54:12;;;;;;;16.90;4.15;;;;;;;6.63;100.00;102349.91;5112395;28;20023;-77
2023/02/02 06:56:37;;;;;;;15.13;2.55;;;;;;;6.62;100.00;102355.28;5113475;28;20027;-75
2023/02/02 06:59:03;;;;;;;25.35;4.40;;;;;;;6.62;100.00;102349.97;5112894;28;20035;-76
2023/02/02 07:01:28;;;;;;;12.52;3.10;;;;;;;6.59;100.00;102366.84;5112911;28;20020;-76
2023/02/02 07:03:53;;;;;;;12.52;2.72;;;;;;;6.59;100.00;102353.63;5112891;28;20065;-77
2023/02/02 07:06:22;;;;;;;24.23;3.25;;;;;;;6.58;100.00;102374.88;5116002;28;20046;-76
2023/02/02 07:08:49;;;;;;;24.02;3.42;;;;;;;6.54;100.00;102376.81;5117692;28;20061;-75
2023/02/02 07:11:15;;;;;;;20.65;3.42;;;;;;;6.51;100.00;102384.91;5116939;28;20024;-74
2023/02/02 07:13:40;;;;;;;20.00;4.43;;;;;;;6.49;100.00;102377.03;5116571;28;20085;-74
2023/02/02 07:16:08;;;;;;;20.00;3.10;;;;;;;6.46;100.00;102385.09;5116447;28;20059;-73
2023/02/02 07:18:35;;;;;;;24.02;3.42;;;;;;;6.48;100.00;102390.34;5116558;28;20456;-72
2023/02/02 07:21:01;;;;;;;17.48;3.60;;;;;;;6.48;100.00;102391.19;5117096;28;20023;-72
2023/02/02 07:23:27;;;;;;;18.60;3.35;;;;;;;6.46;100.00;102387.75;5116659;28;20027;-72
2023/02/02 07:26:04;;;;;;;14.50;2.83;;;;;;;6.44;100.00;102402.84;5117078;28;20049;-72
2023/02/02 07:28:29;;;;;;;24.30;3.83;;;;;;;6.40;100.00;102400.41;5116811;28;20069;-73
2023/02/02 07:30:55;;;;;;;23.08;4.35;;;;;;;6.38;100.00;102399.66;5116520;28;20031;-73
2023/02/02 07:33:20;;;;;;;18.83;3.25;;;;;;;6.33;100.00;102403.34;5116245;28;20030;-72
2023/02/02 07:35:45;;;;;;;20.45;3.47;;;;;;;6.31;100.00;102407.84;5116420;28;20028;-73
2023/02/02 07:38:11;;;;;;;17.92;3.00;;;;;;;6.30;100.00;102419.38;5116329;28;20027;-72
2023/02/02 07:40:36;;;;;;;18.63;2.72;;;;;;;6.30;100.00;102419.38;5115003;28;20400;-72
2023/02/02 07:43:02;;;;;;;23.83;4.40;;;;;;;6.34;100.00;102428.88;5116523;28;20035;-72
2023/02/02 07:45:28;;;;;;;17.92;2.63;;;;;;;6.37;100.00;102433.13;5117029;28;20023;-72
2023/02/02 07:47:57;;;;;;;23.25;3.78;;;;;;;6.36;100.00;102436.72;5116292;28;20364;-72
2023/02/02 07:50:24;;;;;;;20.65;3.30;;;;;;;6.40;100.00;102445.38;5114455;28;20047;-73
2023/02/02 07:52:50;;;;;;;20.98;3.28;;;;;;;6.40;100.00;102435.63;5116273;28;20045;-72
2023/02/02 07:55:15;;;;;;;31.15;3.75;;;;;;;6.44;100.00;102433.72;5116150;28;20030;-74
2023/02/02 07:57:41;;;;;;;27.27;4.65;;;;;;;6.42;100.00;102424.97;5116474;28;20378;-74
2023/02/02 08:00:07;;;;;;;22.38;3.30;;;;;;;6.44;100.00;102433.72;5116180;28;20075;-73
2023/02/02 08:02:32;;;;;;;20.42;3.15;;;;;;;6.45;100.00;102430.13;5116089;28;20080;-74
2023/02/02 08:04:57;;;;;;;21.23;3.35;;;;;;;6.44;100.00;102425.78;5116138;28;20482;-73
2023/02/02 08:07:23;;;;;;;24.70;3.85;;;;;;;6.46;100.00;102431.84;5116550;28;20059;-74
2023/02/02 08:09:50;;;;;;;21.58;3.15;;;;;;;6.49;100.00;102431.69;5116475;28;20019;-78
2023/02/02 08:12:15;;;;;;;16.67;2.88;;;;;;;6.53;100.00;102430.63;5117244;28;20053;-78
2023/02/02 08:14:41;;;;;;;17.75;2.83;;;;;;;6.55;100.00;102441.97;5116176;28;20027;-74
2023/02/02 08:17:06;;;;;;;25.80;3.25;;;;;;;6.56;100.00;102445.50;5114909;28;20019;-75
2023/02/02 08:19:32;;;;;;;21.75;3.55;;;;;;;6.57;100.00;102441.91;5115645;28;20055;-76
2023/02/02 08:21:57;;;;;;;17.73;2.90;;;;;;;6.55;100.00;102446.41;5116739;28;20032;-77
2023/02/02 08:24:22;;;;;;;23.42;3.55;;;;;;;6.57;100.00;102450.72;5116035;28;20063;-72
2023/02/02 08:26:48;;;;;;;19.35;2.97;;;;;;;6.62;100.00;102443.41;5115793;28;20031;-71
2023/02/02 08:29:16;;;;;;;14.20;2.97;;;;;;;6.66;100.00;102446.78;5115909;28;20352;-72
2023/02/02 08:31:43;;;;;;;17.02;2.83;;;;;;;6.68;100.00;102448.41;5116287;28;20036;-71
2023/02/02 08:34:09;;;;;;;19.98;2.50;;;;;;;6.71;100.00;102455.34;5115616;28;20068;-71
2023/02/02 08:36:35;;;;;;;21.27;3.13;;;;;;;6.71;100.00;102452.69;5115517;28;20035;-72
2023/02/02 08:39:03;;;;;;;18.38;3.47;;;;;;;6.74;100.00;102456.97;5115233;28;20107;-71
2023/02/02 08:41:29;;;;;;;16.88;3.22;;;;;;;6.75;100.00;102461.31;5115411;28;20020;-74
2023/02/02 08:43:55;;;;;;;16.15;2.92;;;;;;;6.77;100.00;102470.91;5115635;28;20103;-73
2023/02/02 08:46:20;;;;;;;21.40;3.22;;;;;;;6.81;100.00;102471.63;5115492;28;20051;-72
2023/02/02 08:48:46;;;;;;;22.35;3.70;;;;;;;6.78;100.00;102472.63;5114245;28;20077;-72
2023/02/02 08:51:14;;;;;;;20.08;3.42;;;;;;;6.80;100.00;102477.84;5114893;28;20054;-72
2023/02/02 08:53:41;;;;;;;20.95;2.65;;;;;;;6.80;100.00;102472.56;5115237;28;20136;-72
2023/02/02 08:56:10;;;;;;;20.05;2.63;;;;;;;6.81;100.00;102471.63;5115132;28;20020;-73
2023/02/02 08:58:36;;;;;;;21.17;3.10;;;;;;;6.79;100.00;102473.47;5115100;28;20128;-72
2023/02/02 09:01:13;;;;;;;19.27;2.60;;;;;;;6.78;100.00;102469.97;5114918;28;20055;-72
2023/02/02 09:03:39;;;;;;;22.98;3.30;;;;;;;6.81;100.00;102479.56;5115096;28;20031;-72
2023/02/02 09:06:09;;;;;;;26.02;3.88;;;;;;;6.80;100.00;102486.63;5114998;28;20030;-73
2023/02/02 09:08:35;;;;;;;17.10;3.05;;;;;;;6.76;100.00;102473.63;5114770;28;20482;-73
2023/02/02 09:11:04;;;;;;;17.42;3.00;;;;;;;6.79;100.00;102482.28;5114937;28;20034;-73
2023/02/02 09:13:29;;;;;;;28.33;4.13;;;;;;;6.81;100.00;102485.72;5114824;28;20019;-73
2023/02/02 09:15:58;;;;;;;28.02;3.30;;;;;;;6.84;100.00;102492.66;5114708;28;20027;-72
2023/02/02 09:18:24;;;;;;;20.38;2.80;;;;;;;6.89;100.00;102495.91;5114750;28;20024;-72
2023/02/02 09:20:49;;;;;;;17.80;3.20;;;;;;;6.91;100.00;102501.97;5114815;28;20474;-72
2023/02/02 09:23:14;;;;;;;22.55;3.40;;;;;;;6.96;100.00;102491.19;5115128;28;20019;-72
2023/02/02 09:25:40;;;;;;;17.88;3.65;;;;;;;7.01;100.00;102497.94;5114820;28;20053;-72
2023/02/02 09:28:05;;;;;;;16.13;2.90;;;;;;;7.12;100.00;102502.75;5114589;28;20026;-72
2023/02/02 09:30:31;;;;;;;24.88;3.13;;;;;;;7.24;100.00;102504.78;5114386;28;20027;-72
2023/02/02 09:32:56;;;;;;;18.63;2.90;;;;;;;7.33;100.00;102500.81;5114348;28;20174;-72
2023/02/02 09:35:21;;;;;;;18.20;2.75;;;;;;;7.40;100.00;102506.63;5114575;28;20038;-72
2023/02/02 09:37:47;;;;;;;21.85;3.35;;;;;;;7.55;100.00;102497.06;5114438;28;20057;-72
2023/02/02 09:40:17;;;;;;;17.15;2.45;;;;;;;7.66;100.00;102505.31;5114276;28;20035;-73
2023/02/02 09:42:58;;;;;;;13.03;2.60;;;;;;;7.69;100.00;102501.66;5114470;28;20051;-72
2023/02/02 09:45:46;;;;;;;21.50;3.35;;;;;;;7.59;100.00;102496.81;5114303;28;20019;-72
2023/02/02 09:48:24;;;;;;;17.58;3.55;;;;;;;7.59;100.00;102480.06;5114208;28;20035;-72
2023/02/02 09:51:05;;;;;;;19.10;2.75;;;;;;;7.61;100.00;102498.53;5113975;28;20047;-72
2023/02/02 09:53:44;;;;;;;14.05;2.85;;;;;;;7.65;100.00;102493.00;5114320;28;20034;-72
2023/02/02 09:56:25;;;;;;;21.30;3.38;;;;;;;7.62;100.00;102490.50;5114589;28;20023;-72
2023/02/02 09:58:58;;;;;;;13.98;2.85;;;;;;;7.67;100.00;102511.47;5114265;28;20460;-72
2023/02/02 10:01:30;;;;;;;15.07;3.00;;;;;;;7.59;100.00;102514.50;5113471;28;20348;-72
2023/02/02 10:04:32;;;;;;;18.35;2.50;;;;;;;7.53;100.00;102501.59;5114488;28;20020;-72
2023/02/02 10:07:07;;;;;;;24.65;3.88;;;;;;;7.60;100.00;102513.59;5114122;28;20016;-72
2023/02/02 10:09:46;;;;;;;12.23;2.50;;;;;;;7.59;100.00;102518.00;5112815;28;20337;-72
2023/02/02 10:12:30;;;;;;;14.07;2.08;;;;;;;7.61;100.00;102507.31;5113569;28;20352;-72
2023/02/02 10:15:05;;;;;;;18.25;3.03;;;;;;;7.69;100.00;102513.09;5113613;28;20032;-72
2023/02/02 10:17:40;;;;;;;19.95;2.85;;;;;;;7.91;100.00;102517.28;5113949;28;20032;-72
2023/02/02 10:20:34;;;;;;;20.60;2.90;;;;;;;8.07;100.00;102523.47;5114022;28;20019;-72
2023/02/02 10:23:10;;;;;;;14.98;2.65;;;;;;;8.15;100.00;102524.88;5112302;28;20125;-72
2023/02/02 10:25:42;;;;;;;15.90;2.72;;;;;;;8.17;100.00;102518.56;5113332;28;20478;-72
2023/02/02 10:28:25;;;;;;;17.92;3.15;;;;;;;8.22;100.00;102532.41;5114109;28;20019;-71
2023/02/02 10:30:59;;;;;;;17.67;2.88;;;;;;;8.26;100.00;102538.41;5113225;28;20035;-71
2023/02/02 10:33:36;;;;;;;20.05;3.83;;;;;;;8.18;100.00;102537.94;5113209;28;20019;-71
2023/02/02 10:36:25;;;;;;;17.48;2.50;;;;;;;8.15;100.00;102540.78;5114051;28;20055;-72
2023/02/02 10:39:08;;;;;;;17.05;3.33;;;;;;;8.24;100.00;102541.16;5113702;28;20474;-71
2023/02/02 10:41:47;;;;;;;32.55;3.80;;;;;;;8.24;100.00;102553.53;5113176;28;20016;-73
2023/02/02 10:44:33;;;;;;;18.95;3.45;;;;;;;8.34;100.00;102546.78;5112591;28;20019;-72
2023/02/02 10:47:02;;;;;;;22.40;3.40;;;;;;;8.38;100.00;102540.41;5113613;28;20093;-73
2023/02/02 10:49:33;;;;;;;25.33;3.13;;;;;;;8.39;100.00;102549.19;5113462;28;20059;-73
2023/02/02 10:52:12;;;;;;;21.73;2.30;;;;;;;8.41;100.00;102542.88;5113669;28;20455;-72
2023/02/02 10:54:49;;;;;;;20.10;2.53;;;;;;;8.37;100.00;102538.69;5113482;28;20031;-72
2023/02/02 10:57:24;;;;;;;22.70;3.58;;;;;;;8.31;100.00;102536.34;5113683;28;20027;-72
2023/02/02 11:00:04;;;;;;;14.25;2.70;;;;;;;8.34;100.00;102538.00;5113984;28;20033;-72
2023/02/02 11:02:31;;;;;;;19.83;3.45;;;;;;;8.33;100.00;102538.94;5113042;28;20024;-72
2023/02/02 11:07:40;;;;;;;18.27;2.95;;;;;;;8.31;100.00;102536.34;5113655;28;20066;-72
2023/02/02 11:10:05;;;;;;;23.75;3.30;;;;;;;8.25;100.00;102540.19;5113470;28;20428;-72
2023/02/02 11:12:40;;;;;;;13.18;2.20;;;;;;;8.19;100.00;102545.81;5113354;28;20140;-71
2023/02/02 11:15:21;;;;;;;22.35;3.33;;;;;;;8.13;100.00;102540.84;5113780;28;20041;-73
2023/02/02 11:17:46;;;;;;;15.85;2.70;;;;;;;8.20;100.00;102552.00;5113385;28;20102;-72
2023/02/02 11:20:32;;;;;;;15.18;2.35;;;;;;;8.15;100.00;102548.72;5112947;28;20138;-72
2023/02/02 11:23:00;;;;;;;15.98;3.17;;;;;;;8.06;100.00;102539.47;5113081;28;20030;-72
2023/02/02 11:25:31;;;;;;;14.02;2.08;;;;;;;7.98;100.00;102549.63;5113329;28;20016;-72
2023/02/02 11:27:57;;;;;;;20.75;3.20;;;;;;;7.96;100.00;102555.00;5113090;28;20098;-72
2023/02/02 11:30:33;;;;;;;18.98;2.55;;;;;;;7.85;100.00;102554.69;5112918;28;20088;-73
2023/02/02 11:32:59;;;;;;;13.20;2.92;;;;;;;7.84;100.00;102553.84;5112976;28;20379;-72
2023/02/02 11:35:28;;;;;;;18.00;2.50;;;;;;;7.84;100.00;102553.84;5112844;28;20027;-73